UATG

Atyrau Airport

Airport
ICAO code
UATG
IATA Code
GUW
Summary
ICAO Region
APAC
ICAO Territory
Location

Atyrau,

Serving
Atyrau
Elevation
-72 ft
Coordinates
47° 7' 19" N , 51° 49' 24" E
KCC
BSk
Airport BS
Bird Strike
Airport CFIT
Altimeter Temperature Error Correction
Airport WX
Fog
Metar
Observation
UATG 171830Z 14003MPS CAVOK 28/18 Q1013 NOSIG RMK QFE762/1016
Station
ATYRAU
Date/Time
2022-08-17 18:30:00
Wind direction
140°
Lowest cloud amount
clouds and visibility OK
Temperature
28°C
Dew point
18°C
Humidity
54%
QNH
1013 hPa
Weather condition
n/a

Description

International airport serving Atyrau, Kazakhstan.

Climatology

Cold Semi-arid climate (Köppen climate classification BSk). - Hot, sometimes extremely hot summers and cold, sometimes very cold winters. Some snowfall during the winter. Areas featuring cold semi-arid climates are sometimes subject to major temperature swings during a 24 hour period.

Runways

Designator Length Width Surface Rops
14/32 3000 44 ASP Yes/Yes

Airport map

Aerial View

SKYbrary Partners:

Safety knowledge contributed by: